createdAt,value
2023-01-03T00:02:14.551Z,100633.94
2023-01-03T00:04:48.994Z,100630.44
2023-01-03T00:07:34.346Z,100649.59
2023-01-03T00:10:03.212Z,100640.34
2023-01-03T00:12:32.505Z,100663.00
2023-01-03T00:15:01.704Z,100669.53
2023-01-03T00:17:31.402Z,100671.00
2023-01-03T00:19:59.749Z,100672.63
2023-01-03T00:22:28.064Z,100700.59
2023-01-03T00:24:56.298Z,100707.34
2023-01-03T00:27:24.987Z,100707.34
2023-01-03T00:29:53.571Z,100719.56
2023-01-03T00:32:21.993Z,100733.22
2023-01-03T00:34:51.853Z,100732.31
2023-01-03T00:37:20.126Z,100742.66
2023-01-03T00:39:48.707Z,100750.41
2023-01-03T00:42:17.059Z,100751.06
2023-01-03T00:44:46.006Z,100762.44
2023-01-03T00:47:14.311Z,100770.97
2023-01-03T00:49:42.672Z,100774.38
2023-01-03T00:52:12.657Z,100789.00
2023-01-03T00:54:41.911Z,100790.81
2023-01-03T00:57:10.655Z,100804.53
2023-01-03T00:59:39.154Z,100799.13
2023-01-03T01:02:07.573Z,100798.34
2023-01-03T01:04:36.170Z,100816.00
2023-01-03T01:07:06.028Z,100822.75
2023-01-03T01:09:37.368Z,100829.72
2023-01-03T01:12:07.458Z,100842.03
2023-01-03T01:14:35.671Z,100842.03
2023-01-03T01:17:06.357Z,100844.53
2023-01-03T01:19:37.872Z,100858.66
2023-01-03T01:22:06.791Z,100849.63
2023-01-03T01:24:39.647Z,100853.88
2023-01-03T01:27:08.652Z,100859.06
2023-01-03T01:29:40.420Z,100869.34
2023-01-03T01:32:09.263Z,100865.06
2023-01-03T01:34:37.821Z,100886.22
2023-01-03T01:37:06.130Z,100885.25
2023-01-03T01:39:36.112Z,100904.16
2023-01-03T01:42:30.413Z,100900.78
2023-01-03T01:45:00.650Z,100905.97
2023-01-03T01:47:40.093Z,100905.66
2023-01-03T01:50:17.980Z,100917.91
2023-01-03T01:52:51.932Z,100918.06
2023-01-03T01:55:26.477Z,100928.38
2023-01-03T01:57:55.881Z,100921.69
2023-01-03T02:00:24.362Z,100933.91
2023-01-03T02:02:54.890Z,100949.19
2023-01-03T02:05:25.491Z,100943.91
2023-01-03T02:07:54.898Z,100945.44
2023-01-03T02:10:32.813Z,100946.94
2023-01-03T02:13:10.421Z,100953.75
2023-01-03T02:16:13.441Z,100974.78
2023-01-03T02:18:51.326Z,100974.88
2023-01-03T02:21:44.466Z,100983.69
2023-01-03T02:24:44.216Z,100987.22
2023-01-03T02:27:33.143Z,101007.19
2023-01-03T02:30:29.273Z,101001.13
2023-01-03T02:33:05.052Z,101012.31
2023-01-03T02:35:40.218Z,101018.41
2023-01-03T02:38:16.337Z,101016.75
2023-01-03T02:40:49.610Z,101016.81
2023-01-03T02:43:26.976Z,101015.00
2023-01-03T02:46:05.786Z,101015.69
2023-01-03T02:48:50.158Z,101008.72
2023-01-03T02:51:23.733Z,101021.00
2023-01-03T02:53:53.545Z,101021.16
2023-01-03T02:56:27.665Z,101023.53
2023-01-03T02:59:01.836Z,101024.84
2023-01-03T03:01:32.917Z,101028.31
2023-01-03T03:04:03.678Z,101040.66
2023-01-03T03:06:38.056Z,101047.44
2023-01-03T03:09:06.549Z,101055.97
2023-01-03T03:11:56.525Z,101062.84
2023-01-03T03:14:31.180Z,101062.94
2023-01-03T03:17:05.792Z,101075.63
2023-01-03T03:19:53.073Z,101073.09
2023-01-03T03:23:02.086Z,101079.56
2023-01-03T03:25:35.573Z,101079.75
2023-01-03T03:28:24.746Z,101095.53
2023-01-03T03:30:57.546Z,101106.13
2023-01-03T03:33:30.596Z,101105.91
2023-01-03T03:36:09.815Z,101103.41
2023-01-03T03:38:41.747Z,101105.75
2023-01-03T03:41:37.379Z,101100.72
2023-01-03T03:44:33.127Z,101113.28
2023-01-03T03:47:12.262Z,101130.22
2023-01-03T03:49:45.876Z,101122.84
2023-01-03T03:52:17.316Z,101111.97
2023-01-03T03:54:52.533Z,101119.22
2023-01-03T03:57:27.435Z,101120.91
2023-01-03T04:00:00.311Z,101129.91
2023-01-03T04:02:32.209Z,101136.66
2023-01-03T04:05:08.166Z,101142.25
2023-01-03T04:07:36.739Z,101133.97
2023-01-03T04:10:08.146Z,101138.91
2023-01-03T04:12:36.531Z,101127.09
2023-01-03T04:15:07.150Z,101150.97
2023-01-03T04:17:35.419Z,101152.91
2023-01-03T04:20:05.289Z,101173.50
2023-01-03T04:22:33.538Z,101162.44
2023-01-03T04:25:02.050Z,101177.16
2023-01-03T04:27:30.420Z,101172.16
2023-01-03T04:29:59.108Z,101177.16
2023-01-03T04:32:27.702Z,101183.22
2023-01-03T04:34:55.922Z,101182.75
2023-01-03T04:37:25.742Z,101186.19
2023-01-03T04:39:55.125Z,101196.97
2023-01-03T04:42:40.700Z,101199.59
2023-01-03T04:45:10.274Z,101206.63
2023-01-03T04:47:38.463Z,101214.34
2023-01-03T04:50:08.225Z,101223.25
2023-01-03T04:52:38.052Z,101222.97
2023-01-03T04:55:06.921Z,101196.38
2023-01-03T04:57:35.117Z,101234.94
2023-01-03T05:00:04.078Z,101236.22
2023-01-03T05:02:32.510Z,101232.97
2023-01-03T05:05:00.890Z,101235.94
2023-01-03T05:07:29.545Z,101245.63
2023-01-03T05:09:59.320Z,101234.41
2023-01-03T05:12:27.890Z,101250.84
2023-01-03T05:14:56.390Z,101241.22
2023-01-03T05:17:24.885Z,101261.56
2023-01-03T05:20:20.389Z,101264.09
2023-01-03T05:23:06.334Z,101233.25
2023-01-03T05:25:59.118Z,101262.91
2023-01-03T05:28:27.758Z,101254.38
2023-01-03T05:30:55.860Z,101273.16
2023-01-03T05:33:24.369Z,101274.31
2023-01-03T05:35:52.720Z,101263.59
2023-01-03T05:38:21.316Z,101282.81
2023-01-03T05:40:51.699Z,101285.88
2023-01-03T05:43:20.140Z,101287.72
2023-01-03T05:45:51.953Z,101294.47
2023-01-03T05:48:21.597Z,101279.19
2023-01-03T05:50:51.289Z,101283.03
2023-01-03T05:53:19.724Z,101279.50
2023-01-03T05:55:48.712Z,101237.19
2023-01-03T05:58:18.768Z,101296.97
2023-01-03T06:00:47.095Z,101298.81
2023-01-03T06:03:15.725Z,101302.16
2023-01-03T06:05:50.203Z,101318.69
2023-01-03T06:08:19.291Z,101315.56
2023-01-03T06:10:47.851Z,101327.09
2023-01-03T06:13:19.195Z,101328.06
2023-01-03T06:16:07.987Z,101317.13
2023-01-03T06:18:35.895Z,101334.38
2023-01-03T06:21:13.361Z,101327.44
2023-01-03T06:23:42.030Z,101337.56
2023-01-03T06:26:10.290Z,101336.97
2023-01-03T06:28:40.259Z,101352.31
2023-01-03T06:31:08.813Z,101352.50
2023-01-03T06:33:37.355Z,101358.63
2023-01-03T06:36:07.242Z,101351.94
2023-01-03T06:38:36.166Z,101356.25
2023-01-03T06:41:05.472Z,101364.81
2023-01-03T06:43:34.657Z,101364.56
2023-01-03T06:46:22.657Z,101373.19
2023-01-03T06:49:17.968Z,101379.19
2023-01-03T06:52:08.499Z,101370.28
2023-01-03T06:54:39.392Z,101363.66
2023-01-03T06:57:07.913Z,101385.50
2023-01-03T06:59:36.103Z,101383.59
2023-01-03T07:02:07.073Z,101385.16
2023-01-03T07:04:35.722Z,101397.22
2023-01-03T07:07:04.001Z,101395.78
2023-01-03T07:09:32.721Z,101385.66
2023-01-03T07:12:22.130Z,101408.97
2023-01-03T07:14:49.402Z,101401.22
2023-01-03T07:17:19.329Z,101428.84
2023-01-03T07:19:47.553Z,101422.72
2023-01-03T07:22:16.305Z,101427.31
2023-01-03T07:24:48.528Z,101438.75
2023-01-03T07:27:16.927Z,101441.84
2023-01-03T07:29:45.573Z,101442.44
2023-01-03T07:32:14.037Z,101451.66
2023-01-03T07:34:44.042Z,101442.72
2023-01-03T07:37:12.775Z,101465.22
2023-01-03T07:39:41.190Z,101461.81
2023-01-03T07:42:27.471Z,101476.38
2023-01-03T07:44:55.884Z,101481.19
2023-01-03T07:47:24.105Z,101480.34
2023-01-03T07:49:53.891Z,101491.50
2023-01-03T07:52:22.276Z,101499.97
2023-01-03T07:54:50.431Z,101497.66
2023-01-03T07:57:18.717Z,101498.19
2023-01-03T07:59:47.371Z,101508.59
2023-01-03T08:02:15.740Z,101510.47
2023-01-03T08:04:44.154Z,101510.38
2023-01-03T08:07:14.490Z,101501.13
2023-01-03T08:10:00.425Z,101513.66
2023-01-03T08:12:46.603Z,101505.50
2023-01-03T08:15:15.034Z,101520.50
2023-01-03T08:17:43.273Z,101523.56
2023-01-03T08:20:12.488Z,101539.03
2023-01-03T08:22:43.157Z,101546.78
2023-01-03T08:25:11.433Z,101549.38
2023-01-03T08:27:41.801Z,101551.56
2023-01-03T08:30:13.948Z,101560.31
2023-01-03T08:32:42.466Z,101560.72
2023-01-03T08:35:12.763Z,101558.56
2023-01-03T08:37:42.645Z,101567.53
2023-01-03T08:40:14.246Z,101572.53
2023-01-03T08:42:43.491Z,101570.59
2023-01-03T08:45:15.871Z,101581.09
2023-01-03T08:47:44.935Z,101579.69
2023-01-03T08:50:13.850Z,101576.03
2023-01-03T08:52:43.602Z,101580.31
2023-01-03T08:55:12.161Z,101590.72
2023-01-03T08:57:40.981Z,101583.50
2023-01-03T09:00:10.811Z,101592.34
2023-01-03T09:02:39.419Z,101602.56
2023-01-03T09:05:09.014Z,101605.22
2023-01-03T09:07:51.173Z,101604.75
2023-01-03T09:10:28.029Z,101598.47
2023-01-03T09:13:10.114Z,101618.22
2023-01-03T09:15:44.502Z,101611.72
2023-01-03T09:18:26.856Z,101605.56
2023-01-03T09:20:58.663Z,101608.38
2023-01-03T09:23:33.337Z,101633.19
2023-01-03T09:26:05.569Z,101630.16
2023-01-03T09:28:37.851Z,101632.88
2023-01-03T09:31:12.447Z,101642.56
2023-01-03T09:33:41.009Z,101621.53
2023-01-03T09:36:22.293Z,101658.16
2023-01-03T09:39:02.960Z,101640.66
2023-01-03T09:41:35.380Z,101657.78
2023-01-03T09:44:07.482Z,101665.28
2023-01-03T09:46:39.531Z,101664.88
2023-01-03T09:49:12.026Z,101686.19
2023-01-03T09:52:04.464Z,101681.91
2023-01-03T09:54:54.944Z,101708.38
2023-01-03T09:57:50.671Z,101693.28
2023-01-03T10:00:45.615Z,101681.91
2023-01-03T10:03:51.676Z,101706.09
2023-01-03T10:06:36.872Z,101707.22
2023-01-03T10:09:29.069Z,101705.56
2023-01-03T10:12:24.172Z,101715.16
2023-01-03T10:15:10.264Z,101703.91
2023-01-03T10:17:50.867Z,101728.38
2023-01-03T10:20:33.675Z,101679.84
2023-01-03T10:23:03.057Z,101731.97
2023-01-03T10:25:31.799Z,101723.44
2023-01-03T10:28:04.331Z,101741.97
2023-01-03T10:30:53.845Z,101737.53
2023-01-03T10:33:33.362Z,101745.91
2023-01-03T10:36:02.144Z,101748.19
2023-01-03T10:38:30.603Z,101755.03
2023-01-03T10:41:00.794Z,101754.94
2023-01-03T10:43:33.610Z,101723.94
2023-01-03T10:46:05.521Z,101738.34
2023-01-03T10:49:00.283Z,101766.63
2023-01-03T10:51:35.752Z,101767.44
2023-01-03T10:54:14.201Z,101760.50
2023-01-03T10:56:42.686Z,101754.94
2023-01-03T10:59:20.370Z,101762.66
2023-01-03T11:02:03.489Z,101780.03
2023-01-03T11:04:33.422Z,101783.06
2023-01-03T11:07:06.143Z,101790.25
2023-01-03T11:09:50.580Z,101796.00
2023-01-03T11:12:28.907Z,101775.34
2023-01-03T11:14:59.132Z,101808.69
2023-01-03T11:17:30.829Z,101803.38
2023-01-03T11:19:59.089Z,101772.28
2023-01-03T11:22:38.327Z,101793.53
2023-01-03T11:25:24.585Z,101805.53
2023-01-03T11:28:16.655Z,101816.28
2023-01-03T11:30:54.478Z,101812.00
2023-01-03T11:33:48.515Z,101819.09
2023-01-03T11:36:34.034Z,101827.97
2023-01-03T11:39:22.781Z,101823.66
2023-01-03T11:42:14.670Z,101820.63
2023-01-03T11:45:08.335Z,101823.69
2023-01-03T11:47:48.022Z,101833.47
2023-01-03T11:50:29.195Z,101820.91
2023-01-03T11:53:03.214Z,101829.03
2023-01-03T11:55:44.032Z,101824.69
2023-01-03T11:58:34.311Z,101829.88
2023-01-03T12:01:15.348Z,101834.09
2023-01-03T12:04:00.940Z,101824.56
2023-01-03T12:06:38.869Z,101833.19
2023-01-03T12:09:18.396Z,101841.94
2023-01-03T12:12:09.521Z,101839.91
2023-01-03T12:14:42.636Z,101848.00
2023-01-03T12:17:17.170Z,101847.81
2023-01-03T12:19:51.235Z,101850.44
2023-01-03T12:22:26.664Z,101844.75
2023-01-03T12:25:05.181Z,101846.91
2023-01-03T12:27:37.861Z,101848.66
2023-01-03T12:30:19.247Z,101846.91
2023-01-03T12:32:53.520Z,101852.59
2023-01-03T12:35:30.648Z,101858.50
2023-01-03T12:38:00.590Z,101856.78
2023-01-03T12:40:40.391Z,101869.31
2023-01-03T12:43:14.920Z,101873.91
2023-01-03T12:45:48.714Z,101864.28
2023-01-03T12:48:32.630Z,101872.91
2023-01-03T12:51:00.837Z,101873.06
2023-01-03T12:53:35.708Z,101866.31
2023-01-03T12:56:21.240Z,101847.03
2023-01-03T12:59:04.473Z,101863.41
2023-01-03T13:01:41.083Z,101870.63
2023-01-03T13:04:23.283Z,101869.50
2023-01-03T13:06:58.185Z,101871.25
2023-01-03T13:09:32.392Z,101877.25
2023-01-03T13:12:06.523Z,101886.00
2023-01-03T13:14:53.077Z,101881.94
2023-01-03T13:17:22.842Z,101879.41
2023-01-03T13:19:59.351Z,101879.00
2023-01-03T13:22:50.423Z,101877.03
2023-01-03T13:25:47.289Z,101885.34
2023-01-03T13:28:33.238Z,101892.59
2023-01-03T13:31:37.291Z,101890.19
2023-01-03T13:34:17.479Z,101893.50
2023-01-03T13:37:22.931Z,101899.00
2023-01-03T13:40:12.041Z,101904.22
2023-01-03T13:42:42.310Z,101907.06
2023-01-03T13:45:56.357Z,101914.44
2023-01-03T13:48:37.415Z,101908.56
2023-01-03T13:51:38.234Z,101919.69
2023-01-03T13:54:22.879Z,101912.16
2023-01-03T13:57:04.327Z,101887.25
2023-01-03T13:59:45.986Z,101887.53
2023-01-03T14:02:59.096Z,101917.81
2023-01-03T14:06:12.104Z,101901.75
2023-01-03T14:09:08.457Z,101898.94
2023-01-03T14:11:55.903Z,101868.53
2023-01-03T14:14:28.842Z,101893.25
2023-01-03T14:17:00.229Z,101899.31
2023-01-03T14:19:32.389Z,101897.56
2023-01-03T14:22:26.653Z,101892.22
2023-01-03T14:24:56.653Z,101905.19
2023-01-03T14:27:29.123Z,101914.69
2023-01-03T14:29:57.617Z,101903.38
2023-01-03T14:32:34.445Z,101912.13
2023-01-03T14:35:03.584Z,101913.16
2023-01-03T14:37:33.365Z,101906.66
2023-01-03T14:40:03.337Z,101897.69
2023-01-03T14:42:31.815Z,101901.16
2023-01-03T14:45:02.168Z,101906.31
2023-01-03T14:47:36.878Z,101902.88
2023-01-03T14:50:06.733Z,101906.44
2023-01-03T14:52:39.052Z,101903.00
2023-01-03T14:55:10.502Z,101901.47
2023-01-03T14:57:40.611Z,101906.94
2023-01-03T15:00:17.136Z,101891.19
2023-01-03T15:02:48.241Z,101901.34
2023-01-03T15:05:31.058Z,101901.22
2023-01-03T15:08:10.389Z,101891.88
2023-01-03T15:10:46.414Z,101891.31
2023-01-03T15:13:20.819Z,101894.22
2023-01-03T15:15:55.172Z,101895.44
2023-01-03T15:18:26.920Z,101898.03
2023-01-03T15:20:57.524Z,101889.28
2023-01-03T15:23:48.182Z,101892.22
2023-01-03T15:26:24.313Z,101891.84
2023-01-03T15:28:55.275Z,101884.59
2023-01-03T15:31:33.843Z,101873.28
2023-01-03T15:34:13.677Z,101887.13
2023-01-03T15:36:43.293Z,101890.56
2023-01-03T15:39:19.022Z,101893.72
2023-01-03T15:42:34.996Z,101897.06
2023-01-03T15:44:55.180Z,101900.47
2023-01-03T15:47:26.507Z,101899.69
2023-01-03T15:49:59.727Z,101891.00
2023-01-03T15:52:29.092Z,101892.06
2023-01-03T15:54:57.323Z,101888.41
2023-01-03T15:57:30.938Z,101888.41
2023-01-03T16:00:02.295Z,101890.06
2023-01-03T16:02:32.660Z,101884.97
2023-01-03T16:05:02.660Z,101881.78
2023-01-03T16:07:30.856Z,101861.69
2023-01-03T16:09:59.326Z,101870.75
2023-01-03T16:12:35.259Z,101872.91
2023-01-03T16:15:06.393Z,101880.28
2023-01-03T16:17:35.008Z,101863.13
2023-01-03T16:20:05.014Z,101855.91
2023-01-03T16:22:35.476Z,101866.78
2023-01-03T16:25:05.706Z,101861.72
2023-01-03T16:27:34.420Z,101863.47
2023-01-03T16:30:02.541Z,101866.94
2023-01-03T16:32:31.875Z,101865.84
2023-01-03T16:35:03.122Z,101869.84
2023-01-03T16:37:33.088Z,101875.81
2023-01-03T16:40:01.454Z,101869.72
2023-01-03T16:42:29.803Z,101827.53
2023-01-03T16:44:58.328Z,101854.59
2023-01-03T16:47:31.194Z,101854.72
2023-01-03T16:50:02.230Z,101847.84
2023-01-03T16:52:37.362Z,101848.81
2023-01-03T16:55:14.930Z,101846.22
2023-01-03T16:57:47.348Z,101846.22
2023-01-03T17:00:24.139Z,101859.94
2023-01-03T17:02:52.841Z,101860.19
2023-01-03T17:05:21.214Z,101860.19
2023-01-03T17:07:54.374Z,101854.84
2023-01-03T17:10:28.561Z,101851.31
2023-01-03T17:12:57.763Z,101848.09
2023-01-03T17:15:26.119Z,101848.31
2023-01-03T17:17:54.282Z,101843.03
2023-01-03T17:20:23.604Z,101846.44
2023-01-03T17:22:56.145Z,101825.25
2023-01-03T17:25:35.582Z,101840.41
2023-01-03T17:28:03.846Z,101834.53
2023-01-03T17:30:32.286Z,101839.81
2023-01-03T17:33:00.579Z,101838.81
2023-01-03T17:35:29.665Z,101835.56
2023-01-03T17:38:24.723Z,101841.84
2023-01-03T17:40:49.336Z,101833.19
2023-01-03T17:43:20.706Z,101836.63
2023-01-03T17:46:23.749Z,101839.28
2023-01-03T17:49:16.643Z,101836.28
2023-01-03T17:52:14.941Z,101823.81
2023-01-03T17:54:44.921Z,101822.28
2023-01-03T17:57:17.153Z,101825.72
2023-01-03T17:59:45.697Z,101818.72
2023-01-03T18:02:25.729Z,101829.03
2023-01-03T18:05:26.790Z,101825.72
2023-01-03T18:08:04.305Z,101827.28
2023-01-03T18:10:47.033Z,101823.59
2023-01-03T18:13:24.050Z,101827.03
2023-01-03T18:15:54.823Z,101820.19
2023-01-03T18:18:25.587Z,101821.81
2023-01-03T18:20:54.566Z,101806.31
2023-01-03T18:23:30.637Z,101811.78
2023-01-03T18:26:05.205Z,101811.78
2023-01-03T18:28:43.879Z,101801.22
2023-01-03T18:31:18.676Z,101803.34
2023-01-03T18:33:47.239Z,101805.25
2023-01-03T18:36:25.039Z,101799.69
2023-01-03T18:39:00.325Z,101807.78
2023-01-03T18:41:32.492Z,101783.81
2023-01-03T18:44:01.439Z,101810.31
2023-01-03T18:46:33.666Z,101801.56
2023-01-03T18:49:10.023Z,101790.69
2023-01-03T18:51:41.407Z,101785.81
2023-01-03T18:54:09.775Z,101786.06
2023-01-03T18:56:43.940Z,101784.28
2023-01-03T18:59:21.762Z,101788.56
2023-01-03T19:01:50.222Z,101787.19
2023-01-03T19:04:18.537Z,101780.31
2023-01-03T19:06:49.563Z,101782.69
2023-01-03T19:09:22.391Z,101784.06
2023-01-03T19:11:52.890Z,101784.06
2023-01-03T19:14:22.239Z,101778.97
2023-01-03T19:16:50.537Z,101777.31
2023-01-03T19:19:18.982Z,101771.09
2023-01-03T19:21:48.480Z,101772.31
2023-01-03T19:24:24.230Z,101770.56
2023-01-03T19:26:58.135Z,101766.25
2023-01-03T19:29:37.341Z,101762.25
2023-01-03T19:32:13.373Z,101733.97
2023-01-03T19:35:14.759Z,101753.59
2023-01-03T19:37:43.490Z,101759.25
2023-01-03T19:40:17.948Z,101763.75
2023-01-03T19:42:52.813Z,101752.28
2023-01-03T19:45:27.557Z,101747.84
2023-01-03T19:47:55.922Z,101736.53
2023-01-03T19:50:27.267Z,101735.44
2023-01-03T19:52:56.894Z,101729.22
2023-01-03T19:55:28.919Z,101723.69
2023-01-03T19:58:01.241Z,101728.75
2023-01-03T20:00:37.165Z,101737.19
2023-01-03T20:03:09.313Z,101732.09
2023-01-03T20:05:37.654Z,101723.56
2023-01-03T20:08:12.048Z,101726.97
2023-01-03T20:10:42.876Z,101738.41
2023-01-03T20:13:17.897Z,101740.19
2023-01-03T20:15:48.756Z,101726.03
2023-01-03T20:18:25.631Z,101739.19
2023-01-03T20:20:56.643Z,101725.34
2023-01-03T20:23:25.505Z,101737.75
2023-01-03T20:25:53.681Z,101727.22
2023-01-03T20:28:29.544Z,101729.09
2023-01-03T20:30:58.788Z,101718.78
2023-01-03T20:33:27.321Z,101713.81
2023-01-03T20:36:16.112Z,101712.13
2023-01-03T20:38:48.038Z,101705.16
2023-01-03T20:41:18.247Z,101705.25
2023-01-03T20:43:50.482Z,101680.66
2023-01-03T20:46:23.284Z,101707.13
2023-01-03T20:48:57.002Z,101709.81
2023-01-03T20:51:25.897Z,101690.69
2023-01-03T20:53:55.671Z,101694.28
2023-01-03T20:56:24.111Z,101689.94
2023-01-03T20:58:54.168Z,101688.19
2023-01-03T21:01:22.901Z,101691.50
2023-01-03T21:03:51.365Z,101679.09
2023-01-03T21:06:21.768Z,101682.63
2023-01-03T21:08:57.135Z,101679.09
2023-01-03T21:11:28.342Z,101663.88
2023-01-03T21:14:00.669Z,101673.88
2023-01-03T21:16:35.172Z,101686.09
2023-01-03T21:19:14.331Z,101680.75
2023-01-03T21:21:44.883Z,101677.34
2023-01-03T21:24:14.470Z,101652.63
2023-01-03T21:26:43.393Z,101683.59
2023-01-03T21:29:14.243Z,101662.75
2023-01-03T21:31:44.523Z,101689.34
2023-01-03T21:34:18.591Z,101666.88
2023-01-03T21:36:46.985Z,101652.19
2023-01-03T21:39:24.043Z,101677.09
2023-01-03T21:42:09.969Z,101667.44
2023-01-03T21:44:39.846Z,101653.13
2023-01-03T21:47:09.913Z,101646.75
2023-01-03T21:49:38.128Z,101624.03
2023-01-03T21:52:15.956Z,101666.69
2023-01-03T21:54:44.409Z,101671.22
2023-01-03T21:57:16.404Z,101656.16
2023-01-03T21:59:51.510Z,101670.34
2023-01-03T22:02:37.302Z,101667.13
2023-01-03T22:05:06.340Z,101638.00
2023-01-03T22:07:34.955Z,101670.75
2023-01-03T22:10:19.283Z,101663.94
2023-01-03T22:12:49.378Z,101676.22
2023-01-03T22:15:19.260Z,101677.03
2023-01-03T22:17:47.820Z,101671.94
2023-01-03T22:20:18.044Z,101654.25
2023-01-03T22:22:47.016Z,101676.31
2023-01-03T22:25:17.403Z,101668.56
2023-01-03T22:27:46.820Z,101637.94
2023-01-03T22:30:16.948Z,101653.97
2023-01-03T22:32:47.607Z,101658.25
2023-01-03T22:35:17.901Z,101645.13
2023-01-03T22:37:49.292Z,101638.16
2023-01-03T22:40:19.423Z,101657.78
2023-01-03T22:42:47.952Z,101656.19
2023-01-03T22:45:16.835Z,101651.97
2023-01-03T22:47:46.800Z,101634.31
2023-01-03T22:50:15.087Z,101631.97
2023-01-03T22:52:43.713Z,101633.97
2023-01-03T22:55:11.981Z,101628.81
2023-01-03T22:57:40.096Z,101613.16
2023-01-03T23:00:10.764Z,101622.81
2023-01-03T23:02:41.769Z,101618.50
2023-01-03T23:05:12.150Z,101621.09
2023-01-03T23:07:45.088Z,101606.09
2023-01-03T23:10:13.886Z,101607.00
2023-01-03T23:12:59.308Z,101597.25
2023-01-03T23:15:29.696Z,101602.56
2023-01-03T23:17:58.363Z,101573.56
2023-01-03T23:20:30.889Z,101597.25
2023-01-03T23:23:04.281Z,101604.63
2023-01-03T23:25:33.435Z,101601.16
2023-01-03T23:28:02.272Z,101595.94
2023-01-03T23:30:30.509Z,101581.97
2023-01-03T23:32:58.937Z,101558.97
2023-01-03T23:35:28.613Z,101557.22
2023-01-03T23:37:58.009Z,101564.59
2023-01-03T23:40:26.505Z,101544.28
2023-01-03T23:42:55.077Z,101532.09
2023-01-03T23:45:23.241Z,101545.44
2023-01-03T23:47:52.026Z,101525.81
2023-01-03T23:50:20.411Z,101552.09
2023-01-03T23:52:50.025Z,101540.00
2023-01-03T23:55:21.206Z,101539.09
2023-01-03T23:57:49.405Z,101536.53
